createdAt,value
2022-08-28T00:03:15.504Z,8.50
2022-08-28T00:08:21.263Z,8.10
2022-08-28T00:13:26.065Z,8.50
2022-08-28T00:18:31.445Z,8.40
2022-08-28T00:23:42.751Z,7.90
2022-08-28T00:28:46.253Z,8.10
2022-08-28T00:33:49.223Z,8.90
2022-08-28T00:38:52.211Z,8.70
2022-08-28T00:44:08.477Z,8.20
2022-08-28T00:49:15.238Z,8.50
2022-08-28T00:54:19.480Z,8.60
2022-08-28T00:59:28.021Z,9.00
2022-08-28T01:04:33.048Z,9.00
2022-08-28T01:09:44.882Z,8.30
2022-08-28T01:14:53.631Z,8.10
2022-08-28T01:20:03.094Z,7.40
2022-08-28T01:25:14.373Z,8.40
2022-08-28T01:30:21.767Z,7.90
2022-08-28T01:35:31.258Z,7.50
2022-08-28T01:40:42.957Z,6.90
2022-08-28T01:45:53.047Z,9.50
2022-08-28T01:50:56.594Z,8.20
2022-08-28T01:56:03.041Z,7.60
2022-08-28T02:01:19.035Z,7.80
2022-08-28T02:06:22.478Z,6.90
2022-08-28T02:11:26.403Z,7.40
2022-08-28T02:16:29.617Z,6.80
2022-08-28T02:21:32.723Z,7.10
2022-08-28T02:26:35.707Z,7.10
2022-08-28T02:31:39.018Z,7.20
2022-08-28T02:36:42.723Z,7.00
2022-08-28T02:41:45.711Z,7.70
2022-08-28T02:46:48.715Z,7.60
2022-08-28T02:51:51.831Z,7.70
2022-08-28T02:56:56.302Z,7.60
2022-08-28T03:01:59.272Z,7.10
2022-08-28T03:07:02.978Z,6.30
2022-08-28T03:12:06.372Z,6.70
2022-08-28T03:17:09.608Z,7.20
2022-08-28T03:22:13.063Z,7.00
2022-08-28T03:27:16.044Z,6.60
2022-08-28T03:32:19.222Z,6.80
2022-08-28T03:37:22.128Z,6.50
2022-08-28T03:42:25.208Z,8.00
2022-08-28T03:47:28.459Z,7.00
2022-08-28T03:52:32.737Z,7.60
2022-08-28T03:57:37.060Z,7.00
2022-08-28T04:02:42.389Z,7.10
2022-08-28T04:07:45.903Z,6.30
2022-08-28T04:12:48.997Z,6.30
2022-08-28T04:17:51.978Z,6.10
2022-08-28T04:22:55.590Z,6.60
2022-08-28T04:27:58.959Z,6.30
2022-08-28T04:33:02.466Z,6.10
2022-08-28T04:38:05.765Z,6.00
2022-08-28T04:43:10.097Z,6.30
2022-08-28T04:48:14.720Z,6.50
2022-08-28T04:53:20.798Z,6.20
2022-08-28T04:58:24.439Z,6.00
2022-08-28T05:03:27.513Z,5.80
2022-08-28T05:08:31.469Z,5.90
2022-08-28T05:13:34.473Z,6.40
2022-08-28T05:18:38.159Z,5.80
2022-08-28T05:23:42.973Z,5.80
2022-08-28T05:28:49.988Z,5.70
2022-08-28T05:33:53.698Z,6.10
2022-08-28T05:38:58.704Z,5.90
2022-08-28T05:44:06.404Z,5.10
2022-08-28T05:49:10.564Z,5.20
2022-08-28T05:54:15.733Z,5.30
2022-08-28T05:59:18.731Z,5.30
2022-08-28T06:04:27.709Z,5.20
2022-08-28T06:09:30.934Z,5.00
2022-08-28T06:14:35.329Z,5.20
2022-08-28T06:19:41.560Z,4.90
2022-08-28T06:24:44.712Z,5.00
2022-08-28T06:29:47.776Z,5.10
2022-08-28T06:34:50.786Z,5.60
2022-08-28T06:39:53.717Z,5.10
2022-08-28T06:44:56.899Z,4.80
2022-08-28T06:49:59.874Z,5.10
2022-08-28T06:55:02.993Z,5.00
2022-08-28T07:00:08.181Z,4.90
2022-08-28T07:05:11.202Z,4.90
2022-08-28T07:10:14.214Z,4.50
2022-08-28T07:15:18.807Z,5.10
2022-08-28T07:20:22.722Z,5.00
2022-08-28T07:25:26.650Z,4.60
2022-08-28T07:30:29.634Z,5.10
2022-08-28T07:35:32.936Z,4.60
2022-08-28T07:40:35.969Z,4.50
2022-08-28T07:45:39.056Z,4.00
2022-08-28T07:50:41.952Z,5.10
2022-08-28T07:55:45.585Z,5.00
2022-08-28T08:00:48.544Z,4.90
2022-08-28T08:05:57.926Z,4.60
2022-08-28T08:11:11.227Z,4.50
2022-08-28T08:16:23.888Z,5.00
2022-08-28T08:21:30.319Z,3.90
2022-08-28T08:26:34.485Z,4.00
2022-08-28T08:31:37.438Z,4.30
2022-08-28T08:36:45.622Z,3.70
2022-08-28T08:41:53.491Z,3.90
2022-08-28T08:47:16.301Z,3.80
2022-08-28T08:52:31.201Z,3.90
2022-08-28T08:57:38.482Z,3.90
2022-08-28T09:03:04.787Z,3.90
2022-08-28T09:08:25.321Z,3.60
2022-08-28T09:13:52.403Z,4.00
2022-08-28T09:18:59.422Z,5.00
2022-08-28T09:24:10.873Z,4.10
2022-08-28T09:29:23.680Z,4.60
2022-08-28T09:34:38.561Z,3.40
2022-08-28T09:39:45.587Z,3.90
2022-08-28T09:45:13.859Z,6.00
2022-08-28T09:50:39.575Z,3.40
2022-08-28T09:56:11.143Z,4.20
2022-08-28T10:01:44.692Z,3.40
2022-08-28T10:07:06.284Z,4.20
2022-08-28T10:12:30.875Z,5.70
2022-08-28T10:18:21.603Z,3.80
2022-08-28T10:23:52.287Z,4.50
2022-08-28T10:29:16.859Z,3.10
2022-08-28T10:34:37.598Z,3.70
2022-08-28T10:39:55.512Z,3.30
2022-08-28T10:45:07.171Z,3.40
2022-08-28T10:50:22.138Z,2.80
2022-08-28T10:55:37.863Z,3.30
2022-08-28T11:00:43.942Z,3.20
2022-08-28T11:06:01.899Z,3.50
2022-08-28T11:11:12.363Z,3.40
2022-08-28T11:16:38.981Z,3.30
2022-08-28T11:21:53.333Z,3.90
2022-08-28T11:27:21.512Z,3.80
2022-08-28T11:32:51.771Z,4.00
2022-08-28T11:37:56.453Z,9.70
2022-08-28T11:43:14.742Z,7.00
2022-08-28T11:48:28.399Z,4.10
2022-08-28T11:53:46.132Z,3.70
2022-08-28T11:59:12.771Z,3.80
2022-08-28T12:04:19.800Z,4.00
2022-08-28T12:09:52.954Z,4.10
2022-08-28T12:14:55.900Z,4.40
2022-08-28T12:20:11.754Z,4.70
2022-08-28T12:25:25.131Z,4.20
2022-08-28T12:30:33.769Z,19.00
2022-08-28T12:35:37.184Z,9.60
2022-08-28T12:40:40.120Z,5.10
2022-08-28T12:45:50.662Z,4.30
2022-08-28T12:51:21.248Z,4.90
2022-08-28T12:56:30.169Z,4.10
2022-08-28T13:01:34.323Z,4.50
2022-08-28T13:06:39.693Z,4.50
2022-08-28T13:11:49.313Z,5.40
2022-08-28T13:16:52.433Z,4.90
2022-08-28T13:22:06.284Z,4.60
2022-08-28T13:27:20.428Z,4.80
2022-08-28T13:32:23.902Z,4.20
2022-08-28T13:37:51.010Z,5.10
2022-08-28T13:43:03.079Z,4.70
2022-08-28T13:48:06.425Z,4.90
2022-08-28T13:53:09.563Z,4.50
2022-08-28T13:58:13.976Z,5.00
2022-08-28T14:03:35.922Z,5.00
2022-08-28T14:08:44.287Z,5.00
2022-08-28T14:13:55.713Z,4.90
2022-08-28T14:19:04.740Z,5.20
2022-08-28T14:24:08.778Z,5.00
2022-08-28T14:29:14.065Z,4.40
2022-08-28T14:34:21.319Z,9.70
2022-08-28T14:39:28.136Z,4.50
2022-08-28T14:44:31.143Z,9.50
2022-08-28T14:49:34.217Z,6.30
2022-08-28T14:54:38.643Z,5.30
2022-08-28T14:59:41.714Z,5.20
2022-08-28T15:04:44.627Z,4.90
2022-08-28T15:09:47.561Z,5.20
2022-08-28T15:14:54.911Z,5.70
2022-08-28T15:20:01.071Z,5.10
2022-08-28T15:25:06.081Z,5.70
2022-08-28T15:30:10.247Z,5.50
2022-08-28T15:35:13.231Z,4.70
2022-08-28T15:40:34.915Z,5.50
2022-08-28T15:45:40.620Z,6.90
2022-08-28T15:50:44.913Z,5.20
2022-08-28T15:55:47.880Z,4.90
2022-08-28T16:00:50.992Z,6.50
2022-08-28T16:05:54.589Z,6.30
2022-08-28T16:10:57.674Z,7.80
2022-08-28T16:16:00.803Z,10.10
2022-08-28T16:21:05.247Z,9.30
2022-08-28T16:26:10.358Z,6.90
2022-08-28T16:31:19.199Z,8.60
2022-08-28T16:36:25.326Z,7.30
2022-08-28T16:41:28.685Z,6.40
2022-08-28T16:46:32.792Z,7.70
2022-08-28T16:51:35.725Z,7.20
2022-08-28T16:56:40.168Z,6.40
2022-08-28T17:01:43.497Z,6.90
2022-08-28T17:06:46.616Z,8.90
2022-08-28T17:11:52.207Z,10.20
2022-08-28T17:16:55.434Z,10.30
2022-08-28T17:22:16.911Z,10.00
2022-08-28T17:27:22.584Z,8.40
2022-08-28T17:32:25.958Z,9.40
2022-08-28T17:37:29.459Z,11.60
2022-08-28T17:42:32.426Z,10.30
2022-08-28T17:47:35.495Z,8.70
2022-08-28T17:52:39.050Z,10.70
2022-08-28T17:57:42.659Z,9.60
2022-08-28T18:02:46.917Z,11.90
2022-08-28T18:07:49.933Z,9.20
2022-08-28T18:12:54.197Z,9.70
2022-08-28T18:17:57.967Z,9.60
2022-08-28T18:23:01.616Z,8.90
2022-08-28T18:28:06.000Z,7.90
2022-08-28T18:33:09.854Z,9.00
2022-08-28T18:38:15.091Z,8.90
2022-08-28T18:43:20.366Z,9.10
2022-08-28T18:48:24.403Z,8.40
2022-08-28T18:53:29.519Z,9.60
2022-08-28T18:58:33.034Z,9.70
2022-08-28T19:03:37.844Z,9.20
2022-08-28T19:08:41.531Z,10.70
2022-08-28T19:13:44.626Z,9.90
2022-08-28T19:18:47.907Z,9.30
2022-08-28T19:23:56.004Z,10.20
2022-08-28T19:29:00.171Z,10.60
2022-08-28T19:34:03.295Z,10.00
2022-08-28T19:39:07.423Z,9.40
2022-08-28T19:44:11.374Z,10.30
2022-08-28T19:49:14.529Z,9.00
2022-08-28T19:54:17.523Z,10.50
2022-08-28T19:59:22.939Z,8.10
2022-08-28T20:04:31.742Z,10.00
2022-08-28T20:09:34.958Z,8.60
2022-08-28T20:14:41.542Z,9.40
2022-08-28T20:19:48.799Z,9.50
2022-08-28T20:24:51.840Z,9.40
2022-08-28T20:29:54.803Z,8.70
2022-08-28T20:34:58.685Z,8.70
2022-08-28T20:40:03.642Z,8.30
2022-08-28T20:45:10.747Z,7.00
2022-08-28T20:50:15.837Z,9.40
2022-08-28T20:55:19.196Z,7.20
2022-08-28T21:00:22.343Z,6.30
2022-08-28T21:05:25.914Z,7.60
2022-08-28T21:10:29.048Z,6.10
2022-08-28T21:15:32.341Z,6.60
2022-08-28T21:20:35.422Z,7.10
2022-08-28T21:25:41.485Z,6.50
2022-08-28T21:30:44.428Z,7.20
2022-08-28T21:35:47.601Z,6.90
2022-08-28T21:40:50.705Z,6.00
2022-08-28T21:46:04.926Z,5.00
2022-08-28T21:51:11.914Z,7.40
2022-08-28T21:56:24.537Z,6.90
2022-08-28T22:01:27.829Z,6.60
2022-08-28T22:06:31.208Z,4.80
2022-08-28T22:11:35.144Z,4.90
2022-08-28T22:16:38.278Z,5.50
2022-08-28T22:21:59.690Z,5.10
2022-08-28T22:27:02.630Z,4.50
2022-08-28T22:32:08.349Z,5.20
2022-08-28T22:37:12.589Z,6.60
2022-08-28T22:42:15.565Z,5.60
2022-08-28T22:47:18.823Z,6.00
2022-08-28T22:52:22.099Z,6.20
2022-08-28T22:57:25.215Z,5.10
2022-08-28T23:02:28.922Z,5.40
2022-08-28T23:07:32.130Z,4.40
2022-08-28T23:12:35.241Z,5.40
2022-08-28T23:17:38.278Z,5.60
2022-08-28T23:22:44.278Z,7.70
2022-08-28T23:27:51.487Z,6.90
2022-08-28T23:32:55.582Z,14.90
2022-08-28T23:37:58.596Z,17.10
2022-08-28T23:43:02.950Z,17.40
2022-08-28T23:48:06.807Z,20.70
2022-08-28T23:53:11.389Z,22.90
2022-08-28T23:58:14.487Z,23.10
